createdAt,value
2018-07-19T00:00:24.339Z,1013.77
2018-07-19T00:01:24.338Z,1013.81
2018-07-19T00:02:24.332Z,1013.77
2018-07-19T00:03:24.331Z,1013.75
2018-07-19T00:04:24.338Z,1013.76
2018-07-19T00:05:24.334Z,1013.76
2018-07-19T00:06:24.329Z,1013.73
2018-07-19T00:07:24.327Z,1013.73
2018-07-19T00:08:24.327Z,1013.76
2018-07-19T00:09:24.324Z,1013.76
2018-07-19T00:10:24.329Z,1013.77
2018-07-19T00:11:24.326Z,1013.73
2018-07-19T00:12:24.327Z,1013.77
2018-07-19T00:13:24.324Z,1013.79
2018-07-19T00:14:24.322Z,1013.83
2018-07-19T00:15:24.318Z,1013.80
2018-07-19T00:16:24.317Z,1013.81
2018-07-19T00:17:24.316Z,1013.77
2018-07-19T00:18:24.320Z,1013.80
2018-07-19T00:19:24.318Z,1013.80
2018-07-19T00:20:24.316Z,1013.79
2018-07-19T00:21:24.313Z,1013.80
2018-07-19T00:22:24.315Z,1013.79
2018-07-19T00:23:24.315Z,1013.81
2018-07-19T00:24:24.320Z,1013.79
2018-07-19T00:25:24.310Z,1013.76
2018-07-19T00:26:24.305Z,1013.81
2018-07-19T00:27:24.305Z,1013.79
2018-07-19T00:28:24.304Z,1013.77
2018-07-19T00:29:24.300Z,1013.81
2018-07-19T00:30:24.312Z,1013.81
2018-07-19T00:31:24.304Z,1013.74
2018-07-19T00:32:24.302Z,1013.81
2018-07-19T00:33:24.305Z,1013.78
2018-07-19T00:34:24.294Z,1013.80
2018-07-19T00:35:24.293Z,1013.77
2018-07-19T00:36:24.297Z,1013.77
2018-07-19T00:37:24.294Z,1013.82
2018-07-19T00:38:24.289Z,1013.84
2018-07-19T00:39:24.288Z,1013.81
2018-07-19T00:40:24.289Z,1013.81
2018-07-19T00:41:24.286Z,1013.81
2018-07-19T00:42:24.289Z,1013.79
2018-07-19T00:43:24.289Z,1013.81
2018-07-19T00:44:24.287Z,1013.80
2018-07-19T00:45:24.286Z,1013.82
2018-07-19T00:46:24.283Z,1013.85
2018-07-19T00:47:24.278Z,1014.00
2018-07-19T00:48:24.277Z,1013.93
2018-07-19T00:49:24.273Z,1013.90
2018-07-19T00:50:24.277Z,1013.92
2018-07-19T00:51:24.277Z,1013.85
2018-07-19T00:52:24.272Z,1013.90
2018-07-19T00:53:24.267Z,1013.87
2018-07-19T00:54:24.271Z,1013.87
2018-07-19T00:55:24.269Z,1013.87
2018-07-19T00:56:24.269Z,1013.83
2018-07-19T00:57:24.266Z,1013.77
2018-07-19T00:58:24.261Z,1013.85
2018-07-19T00:59:24.258Z,1013.82
2018-07-19T01:00:24.258Z,1013.77
2018-07-19T01:01:24.254Z,1013.74
2018-07-19T01:02:24.259Z,1013.79
2018-07-19T01:03:24.257Z,1013.84
2018-07-19T01:04:24.255Z,1013.78
2018-07-19T01:05:24.253Z,1013.78
2018-07-19T01:06:24.247Z,1013.76
2018-07-19T01:07:24.245Z,1013.78
2018-07-19T01:08:24.248Z,1013.78
2018-07-19T01:09:24.246Z,1013.81
2018-07-19T01:10:24.240Z,1013.77
2018-07-19T01:11:24.240Z,1013.80
2018-07-19T01:12:24.239Z,1013.76
2018-07-19T01:13:24.237Z,1013.82
2018-07-19T01:14:24.241Z,1013.77
2018-07-19T01:15:24.237Z,1013.82
2018-07-19T01:16:24.235Z,1013.77
2018-07-19T01:17:24.236Z,1013.79
2018-07-19T01:18:24.227Z,1013.75
2018-07-19T01:19:24.227Z,1013.72
2018-07-19T01:20:24.225Z,1013.74
2018-07-19T01:21:24.221Z,1013.73
2018-07-19T01:22:24.229Z,1013.75
2018-07-19T01:23:24.223Z,1013.77
2018-07-19T01:24:24.221Z,1013.76
2018-07-19T01:25:24.216Z,1013.76
2018-07-19T01:26:24.218Z,1013.78
2018-07-19T01:27:24.217Z,1013.78
2018-07-19T01:28:24.218Z,1013.85
2018-07-19T01:29:24.213Z,1013.89
2018-07-19T01:30:24.206Z,1013.88
2018-07-19T01:31:24.205Z,1013.88
2018-07-19T01:32:24.208Z,1013.85
2018-07-19T01:33:24.204Z,1013.86
2018-07-19T01:34:24.200Z,1013.84
2018-07-19T01:35:24.199Z,1013.80
2018-07-19T01:36:24.196Z,1013.79
2018-07-19T01:37:24.193Z,1013.79
2018-07-19T01:38:24.199Z,1013.78
2018-07-19T01:39:24.196Z,1013.81
2018-07-19T01:40:24.192Z,1013.79
2018-07-19T01:41:24.187Z,1013.82
2018-07-19T01:42:24.190Z,1013.82
2018-07-19T01:43:24.189Z,1013.79
2018-07-19T01:44:24.186Z,1013.80
2018-07-19T01:45:24.184Z,1013.78
2018-07-19T01:46:24.181Z,1013.81
2018-07-19T01:47:24.175Z,1013.80
2018-07-19T01:48:24.174Z,1013.80
2018-07-19T01:49:24.172Z,1013.83
2018-07-19T01:50:24.176Z,1013.84
2018-07-19T01:51:24.172Z,1013.84
2018-07-19T01:52:24.173Z,1013.84
2018-07-19T01:53:24.169Z,1013.82
2018-07-19T01:54:24.162Z,1013.80
2018-07-19T01:55:24.160Z,1013.84
2018-07-19T01:56:24.164Z,1013.82
2018-07-19T01:57:24.162Z,1013.80
2018-07-19T01:58:24.155Z,1013.73
2018-07-19T01:59:24.155Z,1013.79
2018-07-19T02:00:24.156Z,1013.74
2018-07-19T02:01:24.152Z,1013.74
2018-07-19T02:02:24.157Z,1013.76
2018-07-19T02:03:24.195Z,1013.80
2018-07-19T02:04:24.152Z,1013.77
2018-07-19T02:05:24.151Z,1013.81
2018-07-19T02:06:24.140Z,1013.78
2018-07-19T02:07:24.140Z,1013.77
2018-07-19T02:08:24.137Z,1013.77
2018-07-19T02:09:24.134Z,1013.82
2018-07-19T02:10:24.138Z,1013.82
2018-07-19T02:11:24.136Z,1013.80
2018-07-19T02:12:24.129Z,1013.80
2018-07-19T02:13:24.126Z,1013.83
2018-07-19T02:14:24.131Z,1013.84
2018-07-19T02:15:24.129Z,1013.79
2018-07-19T02:16:24.127Z,1013.83
2018-07-19T02:17:24.122Z,1013.81
2018-07-19T02:18:24.118Z,1013.84
2018-07-19T02:19:24.116Z,1013.83
2018-07-19T02:20:24.114Z,1013.83
2018-07-19T02:21:24.110Z,1013.85
2018-07-19T02:22:24.114Z,1013.82
2018-07-19T02:23:24.111Z,1013.83
2018-07-19T02:24:24.111Z,1013.82
2018-07-19T02:25:24.107Z,1013.76
2018-07-19T02:26:24.100Z,1013.75
2018-07-19T02:27:24.099Z,1013.78
2018-07-19T02:28:24.103Z,1013.80
2018-07-19T02:29:24.101Z,1013.74
2018-07-19T02:30:24.096Z,1013.71
2018-07-19T02:31:24.091Z,1013.74
2018-07-19T02:32:24.089Z,1013.72
2018-07-19T02:33:24.087Z,1013.72
2018-07-19T02:34:24.088Z,1013.71
2018-07-19T02:35:24.087Z,1013.76
2018-07-19T02:36:24.085Z,1013.74
2018-07-19T02:37:24.082Z,1013.69
2018-07-19T02:38:24.077Z,1013.71
2018-07-19T02:39:24.075Z,1013.75
2018-07-19T02:40:24.073Z,1013.66
2018-07-19T02:41:24.070Z,1013.69
2018-07-19T02:42:24.071Z,1013.67
2018-07-19T02:43:24.069Z,1013.65
2018-07-19T02:44:24.063Z,1013.65
2018-07-19T02:45:24.060Z,1013.65
2018-07-19T02:46:24.063Z,1013.62
2018-07-19T02:47:24.061Z,1013.65
2018-07-19T02:48:24.060Z,1013.68
2018-07-19T02:49:24.057Z,1013.73
2018-07-19T02:50:24.050Z,1013.70
2018-07-19T02:51:24.048Z,1013.72
2018-07-19T02:52:24.048Z,1013.69
2018-07-19T02:53:24.047Z,1013.69
2018-07-19T02:54:24.049Z,1013.73
2018-07-19T02:55:24.046Z,1013.69
2018-07-19T02:56:24.043Z,1013.72
2018-07-19T02:57:24.040Z,1013.67
2018-07-19T02:58:24.034Z,1013.70
2018-07-19T02:59:24.032Z,1013.69
2018-07-19T03:00:24.036Z,1013.69
2018-07-19T03:01:24.032Z,1013.68
2018-07-19T03:02:24.029Z,1013.71
2018-07-19T03:03:24.025Z,1013.72
2018-07-19T03:04:24.024Z,1013.70
2018-07-19T03:05:24.020Z,1013.66
2018-07-19T03:06:24.041Z,1013.65
2018-07-19T03:07:24.021Z,1013.68
2018-07-19T03:08:24.021Z,1013.64
2018-07-19T03:09:24.018Z,1013.62
2018-07-19T03:10:24.011Z,1013.62
2018-07-19T03:11:24.009Z,1013.61
2018-07-19T03:12:24.007Z,1013.60
2018-07-19T03:13:24.005Z,1013.61
2018-07-19T03:14:24.008Z,1013.61
2018-07-19T03:15:24.008Z,1013.60
2018-07-19T03:16:23.999Z,1013.58
2018-07-19T03:17:23.997Z,1013.55
2018-07-19T03:18:23.998Z,1013.64
2018-07-19T03:19:23.997Z,1013.65
2018-07-19T03:20:23.996Z,1013.65
2018-07-19T03:21:23.993Z,1013.63
2018-07-19T03:22:23.986Z,1013.64
2018-07-19T03:23:23.984Z,1013.66
2018-07-19T03:24:23.983Z,1013.61
2018-07-19T03:25:23.980Z,1013.67
2018-07-19T03:26:23.983Z,1013.66
2018-07-19T03:27:23.981Z,1013.63
2018-07-19T03:28:23.980Z,1013.67
2018-07-19T03:29:23.975Z,1013.64
2018-07-19T03:30:23.973Z,1013.62
2018-07-19T03:31:23.982Z,1013.61
2018-07-19T03:32:23.971Z,1013.62
2018-07-19T03:33:23.967Z,1013.61
2018-07-19T03:34:23.965Z,1013.64
2018-07-19T03:35:23.959Z,1013.61
2018-07-19T03:36:23.957Z,1013.65
2018-07-19T03:37:23.954Z,1013.62
2018-07-19T03:38:23.957Z,1013.67
2018-07-19T03:39:23.956Z,1013.62
2018-07-19T03:40:23.952Z,1013.66
2018-07-19T03:41:23.949Z,1013.66
2018-07-19T03:42:23.943Z,1013.70
2018-07-19T03:43:23.942Z,1013.71
2018-07-19T03:44:23.940Z,1013.68
2018-07-19T03:45:23.936Z,1013.71
2018-07-19T03:46:23.940Z,1013.69
2018-07-19T03:47:23.937Z,1013.68
2018-07-19T03:48:23.931Z,1013.70
2018-07-19T03:49:23.928Z,1013.71
2018-07-19T03:50:23.932Z,1013.67
2018-07-19T03:51:23.929Z,1013.70
2018-07-19T03:52:23.925Z,1013.63
2018-07-19T03:53:23.922Z,1013.70
2018-07-19T03:54:23.918Z,1013.70
2018-07-19T03:55:23.915Z,1013.73
2018-07-19T03:56:23.913Z,1013.76
2018-07-19T03:57:23.909Z,1013.71
2018-07-19T03:58:23.911Z,1013.75
2018-07-19T03:59:23.909Z,1013.70
2018-07-19T04:00:23.908Z,1013.73
2018-07-19T04:01:23.905Z,1013.74
2018-07-19T04:02:23.901Z,1013.74
2018-07-19T04:03:23.895Z,1013.74
2018-07-19T04:04:23.899Z,1013.72
2018-07-19T04:05:23.895Z,1013.73
2018-07-19T04:06:23.889Z,1013.76
2018-07-19T04:07:23.887Z,1013.73
2018-07-19T04:08:23.884Z,1013.77
2018-07-19T04:09:23.880Z,1013.71
2018-07-19T04:10:23.884Z,1013.74
2018-07-19T04:11:23.881Z,1013.74
2018-07-19T04:12:23.879Z,1013.77
2018-07-19T04:13:23.874Z,1013.77
2018-07-19T04:14:23.869Z,1013.82
2018-07-19T04:15:23.866Z,1013.80
2018-07-19T04:16:23.866Z,1013.78
2018-07-19T04:17:23.862Z,1013.76
2018-07-19T04:18:23.865Z,1013.82
2018-07-19T04:19:23.865Z,1013.80
2018-07-19T04:20:23.857Z,1013.83
2018-07-19T04:21:23.852Z,1013.79
2018-07-19T04:22:23.855Z,1013.84
2018-07-19T04:23:23.854Z,1013.82
2018-07-19T04:24:23.854Z,1013.81
2018-07-19T04:25:23.849Z,1013.80
2018-07-19T04:26:23.841Z,1013.83
2018-07-19T04:27:23.839Z,1013.83
2018-07-19T04:28:23.838Z,1013.84
2018-07-19T04:29:23.834Z,1013.82
2018-07-19T04:30:23.837Z,1013.77
2018-07-19T04:31:23.834Z,1013.78
2018-07-19T04:32:23.836Z,1013.82
2018-07-19T04:33:23.833Z,1013.74
2018-07-19T04:34:23.825Z,1013.74
2018-07-19T04:35:23.821Z,1013.76
2018-07-19T04:36:23.825Z,1013.77
2018-07-19T04:37:23.823Z,1013.81
2018-07-19T04:38:23.819Z,1013.81
2018-07-19T04:39:23.814Z,1013.79
2018-07-19T04:40:23.812Z,1013.86
2018-07-19T04:41:23.809Z,1013.89
2018-07-19T04:42:23.812Z,1013.86
2018-07-19T04:43:23.810Z,1013.95
2018-07-19T04:44:23.810Z,1013.88
2018-07-19T04:45:23.808Z,1013.90
2018-07-19T04:46:23.800Z,1013.92
2018-07-19T04:47:23.799Z,1013.89
2018-07-19T04:48:23.821Z,1013.87
2018-07-19T04:49:23.796Z,1013.83
2018-07-19T04:50:23.797Z,1013.86
2018-07-19T04:51:23.800Z,1013.82
2018-07-19T04:52:23.791Z,1013.84
2018-07-19T04:53:23.789Z,1013.89
2018-07-19T04:54:23.792Z,1013.84
2018-07-19T04:55:23.790Z,1013.87
2018-07-19T04:56:23.790Z,1013.87
2018-07-19T04:57:23.788Z,1013.95
2018-07-19T04:58:23.783Z,1013.94
2018-07-19T04:59:23.781Z,1013.95
2018-07-19T05:00:23.781Z,1014.02
2018-07-19T05:01:23.780Z,1014.00
2018-07-19T05:02:23.783Z,1014.07
2018-07-19T05:03:23.786Z,1014.08
2018-07-19T05:04:23.782Z,1014.10
2018-07-19T05:05:23.780Z,1014.15
2018-07-19T05:06:23.777Z,1014.20
2018-07-19T05:07:23.776Z,1014.25
2018-07-19T05:08:23.781Z,1014.28
2018-07-19T05:09:23.781Z,1014.29
2018-07-19T05:10:23.776Z,1014.24
2018-07-19T05:11:23.779Z,1014.15
2018-07-19T05:12:23.779Z,1014.15
2018-07-19T05:13:23.782Z,1014.16
2018-07-19T05:14:23.785Z,1014.10
2018-07-19T05:15:23.786Z,1014.21
2018-07-19T05:16:23.788Z,1014.11
2018-07-19T05:17:23.788Z,1014.15
2018-07-19T05:18:23.785Z,1014.10
2018-07-19T05:19:23.785Z,1014.14
2018-07-19T05:20:23.786Z,1014.17
2018-07-19T05:21:23.791Z,1014.16
2018-07-19T05:22:23.793Z,1014.20
2018-07-19T05:23:23.797Z,1014.18
2018-07-19T05:24:23.793Z,1014.16
2018-07-19T05:25:23.792Z,1014.19
2018-07-19T05:26:23.798Z,1014.21
2018-07-19T05:27:23.799Z,1014.16
2018-07-19T05:28:23.803Z,1014.16
2018-07-19T05:29:23.802Z,1014.19
2018-07-19T05:30:23.800Z,1014.19
2018-07-19T05:31:23.800Z,1014.18
2018-07-19T05:32:23.803Z,1014.18
2018-07-19T05:33:23.804Z,1014.15
2018-07-19T05:34:23.810Z,1014.15
2018-07-19T05:35:23.812Z,1014.19
2018-07-19T05:36:23.811Z,1014.22
2018-07-19T05:37:23.811Z,1014.16
2018-07-19T05:38:23.810Z,1014.16
2018-07-19T05:39:23.810Z,1014.20
2018-07-19T05:40:23.846Z,1014.20
2018-07-19T05:41:23.817Z,1014.19
2018-07-19T05:42:23.845Z,1014.28
2018-07-19T05:43:23.815Z,1014.28
2018-07-19T05:44:23.818Z,1014.24
2018-07-19T05:45:23.817Z,1014.21
2018-07-19T05:46:23.825Z,1014.27
2018-07-19T05:47:23.827Z,1014.28
2018-07-19T05:48:23.828Z,1014.29
2018-07-19T05:49:23.831Z,1014.33
2018-07-19T05:50:23.825Z,1014.30
2018-07-19T05:51:23.827Z,1014.30
2018-07-19T05:52:23.829Z,1014.28
2018-07-19T05:53:23.829Z,1014.34
2018-07-19T05:54:23.836Z,1014.34
2018-07-19T05:55:23.838Z,1014.29
2018-07-19T05:56:23.836Z,1014.34
2018-07-19T05:57:23.836Z,1014.38
2018-07-19T05:58:23.843Z,1014.33
2018-07-19T05:59:23.845Z,1014.37
2018-07-19T06:00:23.850Z,1014.37
2018-07-19T06:01:23.848Z,1014.38
2018-07-19T06:02:23.846Z,1014.35
2018-07-19T06:03:23.849Z,1014.33
2018-07-19T06:04:23.851Z,1014.39
2018-07-19T06:05:23.853Z,1014.30
2018-07-19T06:06:23.861Z,1014.27
2018-07-19T06:07:23.863Z,1014.25
2018-07-19T06:08:23.866Z,1014.29
2018-07-19T06:09:23.869Z,1014.31
2018-07-19T06:10:23.865Z,1014.30
2018-07-19T06:11:23.866Z,1014.29
2018-07-19T06:12:23.874Z,1014.27
2018-07-19T06:13:23.875Z,1014.29
2018-07-19T06:14:23.873Z,1014.34
2018-07-19T06:15:23.877Z,1014.36
2018-07-19T06:16:23.880Z,1014.31
2018-07-19T06:17:23.885Z,1014.34
2018-07-19T06:18:23.890Z,1014.33
2018-07-19T06:19:23.892Z,1014.31
2018-07-19T06:20:23.896Z,1014.30
2018-07-19T06:21:23.897Z,1014.31
2018-07-19T06:22:23.896Z,1014.31
2018-07-19T06:23:23.899Z,1014.32
2018-07-19T06:24:23.903Z,1014.32
2018-07-19T06:25:23.904Z,1014.35
2018-07-19T06:26:23.912Z,1014.37
2018-07-19T06:27:23.917Z,1014.37
2018-07-19T06:28:23.925Z,1014.37
2018-07-19T06:29:23.915Z,1014.39
2018-07-19T06:30:23.924Z,1014.42
2018-07-19T06:31:23.927Z,1014.40
2018-07-19T06:32:23.930Z,1014.39
2018-07-19T06:33:23.933Z,1014.36
2018-07-19T06:34:23.930Z,1014.40
2018-07-19T06:35:23.933Z,1014.40
2018-07-19T06:36:23.936Z,1014.42
2018-07-19T06:37:23.937Z,1014.40
2018-07-19T06:38:23.945Z,1014.44
2018-07-19T06:39:23.951Z,1014.37
2018-07-19T06:40:23.951Z,1014.55
2018-07-19T06:41:23.953Z,1014.43
2018-07-19T06:42:23.952Z,1014.40
2018-07-19T06:43:23.957Z,1014.45
2018-07-19T06:44:23.966Z,1014.38
2018-07-19T06:45:23.964Z,1014.58
2018-07-19T06:46:23.963Z,1014.86
2018-07-19T06:47:23.967Z,1014.86
2018-07-19T06:48:23.970Z,1015.07
2018-07-19T06:49:23.979Z,1014.68
2018-07-19T06:50:23.984Z,1014.70
2018-07-19T06:51:23.985Z,1015.07
2018-07-19T06:52:23.990Z,1014.89
2018-07-19T06:53:23.991Z,1014.62
2018-07-19T06:54:23.992Z,1014.64
2018-07-19T06:55:23.996Z,1014.66
2018-07-19T06:56:24.000Z,1014.69
2018-07-19T06:57:24.044Z,1014.66
2018-07-19T06:58:24.014Z,1014.67
2018-07-19T06:59:24.019Z,1014.65
2018-07-19T07:00:24.019Z,1014.68
2018-07-19T07:01:24.022Z,1014.69
2018-07-19T07:02:24.034Z,1014.70
2018-07-19T07:03:24.037Z,1015.09
2018-07-19T07:04:24.042Z,1015.49
2018-07-19T07:05:24.046Z,1015.33
2018-07-19T07:06:24.047Z,1015.41
2018-07-19T07:07:24.052Z,1015.41
2018-07-19T07:08:24.058Z,1015.24
2018-07-19T07:09:24.062Z,1015.03
2018-07-19T07:10:24.074Z,1014.95
2018-07-19T07:11:24.078Z,1015.26
2018-07-19T07:12:24.086Z,1015.08
2018-07-19T07:13:24.091Z,1015.16
2018-07-19T07:14:24.093Z,1015.07
2018-07-19T07:15:24.099Z,1014.93
2018-07-19T07:16:24.111Z,1014.88
2018-07-19T07:17:24.116Z,1014.81
2018-07-19T07:18:24.118Z,1014.82
2018-07-19T07:19:24.124Z,1014.83
2018-07-19T07:20:24.131Z,1014.85
2018-07-19T07:21:24.137Z,1014.82
2018-07-19T07:22:24.148Z,1014.83
2018-07-19T07:23:24.156Z,1014.74
2018-07-19T07:24:24.162Z,1014.77
2018-07-19T07:25:24.168Z,1014.78
2018-07-19T07:26:24.171Z,1014.76
2018-07-19T07:27:24.178Z,1014.76
2018-07-19T07:28:24.264Z,1014.80
2018-07-19T07:29:24.188Z,1014.77
2018-07-19T07:30:24.199Z,1014.75
2018-07-19T07:31:24.206Z,1014.84
2018-07-19T07:32:24.208Z,1014.91
2018-07-19T07:33:24.218Z,1014.88
2018-07-19T07:34:24.224Z,1014.96
2018-07-19T07:35:24.230Z,1014.92
2018-07-19T07:36:24.234Z,1014.91
2018-07-19T07:37:24.242Z,1014.89
2018-07-19T07:38:24.243Z,1015.43
2018-07-19T07:39:24.248Z,1015.61
2018-07-19T07:40:24.254Z,1015.33
2018-07-19T07:41:24.260Z,1015.14
2018-07-19T07:42:24.271Z,1015.01
2018-07-19T07:43:24.278Z,1014.98
2018-07-19T07:44:24.285Z,1014.93
2018-07-19T07:45:24.291Z,1014.97
2018-07-19T07:46:24.295Z,1014.98
2018-07-19T07:47:24.300Z,1015.07
2018-07-19T07:48:24.315Z,1015.11
2018-07-19T07:49:24.318Z,1015.03
2018-07-19T07:50:24.320Z,1015.03
2018-07-19T07:51:24.327Z,1014.99
2018-07-19T07:52:24.334Z,1014.99
2018-07-19T07:53:24.339Z,1015.04
2018-07-19T07:54:24.352Z,1014.76
2018-07-19T07:55:24.359Z,1014.79
2018-07-19T07:56:24.366Z,1014.79
2018-07-19T07:57:24.374Z,1014.78
2018-07-19T07:58:24.374Z,1014.76
2018-07-19T07:59:24.395Z,1014.75
2018-07-19T08:00:24.438Z,1014.73
2018-07-19T08:01:24.392Z,1014.77
2018-07-19T08:02:24.403Z,1014.76
2018-07-19T08:03:24.413Z,1014.78
2018-07-19T08:04:24.412Z,1014.78
2018-07-19T08:05:24.422Z,1014.82
2018-07-19T08:06:24.431Z,1014.82
2018-07-19T08:07:24.435Z,1014.80
2018-07-19T08:08:24.442Z,1014.78
2018-07-19T08:09:24.447Z,1014.84
2018-07-19T08:10:24.448Z,1014.82
2018-07-19T08:11:24.456Z,1014.79
2018-07-19T08:12:24.461Z,1014.79
2018-07-19T08:13:24.467Z,1014.82
2018-07-19T08:14:24.479Z,1014.88
2018-07-19T08:15:24.485Z,1014.81
2018-07-19T08:16:24.490Z,1014.87
2018-07-19T08:17:24.498Z,1014.84
2018-07-19T08:18:24.497Z,1014.81
2018-07-19T08:19:24.504Z,1014.81
2018-07-19T08:20:24.518Z,1014.74
2018-07-19T08:21:24.521Z,1014.73
2018-07-19T08:22:24.523Z,1014.81
2018-07-19T08:23:24.529Z,1014.78
2018-07-19T08:24:24.536Z,1014.77
2018-07-19T08:25:24.542Z,1014.79
2018-07-19T08:26:24.564Z,1014.80
2018-07-19T08:27:24.559Z,1014.84
2018-07-19T08:28:24.565Z,1015.10
2018-07-19T08:29:24.571Z,1015.07
2018-07-19T08:30:24.572Z,1014.94
2018-07-19T08:31:24.578Z,1014.89
2018-07-19T08:32:24.597Z,1015.13
2018-07-19T08:33:24.590Z,1015.00
2018-07-19T08:34:24.607Z,1015.04
2018-07-19T08:35:24.610Z,1015.12
2018-07-19T08:36:24.614Z,1015.06
2018-07-19T08:37:24.620Z,1014.95
2018-07-19T08:38:24.632Z,1015.05
2018-07-19T08:39:24.641Z,1015.02
2018-07-19T08:40:24.651Z,1015.14
2018-07-19T08:41:24.659Z,1015.10
2018-07-19T08:42:24.666Z,1015.08
2018-07-19T08:43:24.673Z,1015.10
2018-07-19T08:44:24.682Z,1014.97
2018-07-19T08:45:24.691Z,1015.05
2018-07-19T08:46:24.708Z,1015.16
2018-07-19T08:47:24.727Z,1015.03
2018-07-19T08:48:24.728Z,1014.96
2018-07-19T08:49:24.738Z,1014.99
2018-07-19T08:50:24.745Z,1014.97
2018-07-19T08:51:24.757Z,1014.89
2018-07-19T08:52:24.773Z,1014.94
2018-07-19T08:53:24.783Z,1014.92
2018-07-19T08:54:24.789Z,1014.99
2018-07-19T08:55:24.801Z,1015.06
2018-07-19T08:56:24.847Z,1015.19
2018-07-19T08:57:24.824Z,1015.14
2018-07-19T08:58:24.840Z,1015.11
2018-07-19T08:59:24.853Z,1015.16
2018-07-19T09:00:24.863Z,1015.19
2018-07-19T09:01:24.880Z,1015.16
2018-07-19T09:02:24.930Z,1015.19
2018-07-19T09:03:24.896Z,1015.23
2018-07-19T09:04:24.911Z,1015.22
2018-07-19T09:05:24.921Z,1015.18
2018-07-19T09:06:24.941Z,1015.14
2018-07-19T09:07:24.954Z,1015.09
2018-07-19T09:08:24.965Z,1015.13
2018-07-19T09:09:24.977Z,1015.17
2018-07-19T09:10:24.995Z,1015.15
2018-07-19T09:11:25.010Z,1015.13
2018-07-19T09:12:25.024Z,1015.09
2018-07-19T09:13:25.038Z,1015.03
2018-07-19T09:14:25.060Z,1015.09
2018-07-19T09:15:25.063Z,1015.12
2018-07-19T09:16:25.077Z,1015.13
2018-07-19T09:17:25.110Z,1015.13
2018-07-19T09:18:25.109Z,1015.14
2018-07-19T09:19:25.146Z,1015.14
2018-07-19T09:20:25.145Z,1015.08
2018-07-19T09:21:25.157Z,1015.13
2018-07-19T09:22:25.167Z,1015.09
2018-07-19T09:23:25.181Z,1015.10
2018-07-19T09:24:25.201Z,1015.07
2018-07-19T09:25:25.215Z,1015.04
2018-07-19T09:26:25.226Z,1015.07
2018-07-19T09:27:25.243Z,1015.08
2018-07-19T09:28:25.257Z,1015.06
2018-07-19T09:29:25.272Z,1015.03
2018-07-19T09:30:25.292Z,1015.06
2018-07-19T09:31:25.308Z,1015.04
2018-07-19T09:32:25.323Z,1015.01
2018-07-19T09:33:25.340Z,1015.01
2018-07-19T09:34:25.352Z,1015.05
2018-07-19T09:35:25.367Z,1015.05
2018-07-19T09:36:25.384Z,1015.07
2018-07-19T09:37:25.399Z,1015.06
2018-07-19T09:38:25.508Z,1015.03
2018-07-19T09:39:25.473Z,1015.03
2018-07-19T09:40:25.448Z,1014.99
2018-07-19T09:41:25.464Z,1015.02
2018-07-19T09:42:25.485Z,1015.06
2018-07-19T09:43:25.525Z,1015.00
2018-07-19T09:44:25.520Z,1015.01
2018-07-19T09:45:25.535Z,1014.96
2018-07-19T09:46:25.548Z,1014.97
2018-07-19T09:47:25.568Z,1014.98
2018-07-19T09:48:25.581Z,1015.02
2018-07-19T09:49:25.598Z,1014.99
2018-07-19T09:50:25.619Z,1014.98
2018-07-19T09:51:25.636Z,1014.99
2018-07-19T09:52:25.655Z,1014.96
2018-07-19T09:53:25.672Z,1014.99
2018-07-19T09:54:25.682Z,1014.97
2018-07-19T09:55:25.703Z,1014.94
2018-07-19T09:56:25.722Z,1014.97
2018-07-19T09:57:25.739Z,1014.95
2018-07-19T09:58:25.750Z,1014.91
2018-07-19T09:59:25.799Z,1014.94
2018-07-19T10:00:25.791Z,1014.93
2018-07-19T10:01:25.801Z,1014.90
2018-07-19T10:02:25.822Z,1014.85
2018-07-19T10:03:25.839Z,1014.82
2018-07-19T10:04:25.859Z,1014.85
2018-07-19T10:05:25.875Z,1014.89
2018-07-19T10:06:25.891Z,1014.92
2018-07-19T10:07:25.905Z,1014.95
2018-07-19T10:08:25.920Z,1014.95
2018-07-19T10:09:25.935Z,1014.89
2018-07-19T10:10:25.958Z,1014.91
2018-07-19T10:11:25.975Z,1014.91
2018-07-19T10:12:25.986Z,1014.91
2018-07-19T10:13:26.011Z,1014.91
2018-07-19T10:14:26.024Z,1014.90
2018-07-19T10:15:26.072Z,1014.85
2018-07-19T10:16:26.059Z,1014.86
2018-07-19T10:17:26.135Z,1014.84
2018-07-19T10:18:26.087Z,1014.82
2018-07-19T10:19:26.102Z,1014.81
2018-07-19T10:20:26.118Z,1014.82
2018-07-19T10:21:26.135Z,1014.80
2018-07-19T10:22:26.157Z,1014.80
2018-07-19T10:23:26.175Z,1014.82
2018-07-19T10:24:26.208Z,1014.83
2018-07-19T10:25:26.204Z,1014.85
2018-07-19T10:26:26.218Z,1014.76
2018-07-19T10:27:26.235Z,1014.81
2018-07-19T10:28:26.256Z,1014.75
2018-07-19T10:29:26.272Z,1014.76
2018-07-19T10:30:26.284Z,1014.69
2018-07-19T10:31:26.300Z,1014.68
2018-07-19T10:32:26.392Z,1014.70
2018-07-19T10:33:26.335Z,1014.74
2018-07-19T10:34:26.446Z,1014.64
2018-07-19T10:35:26.373Z,1014.67
2018-07-19T10:36:26.389Z,1014.74
2018-07-19T10:37:26.407Z,1014.70
2018-07-19T10:38:26.465Z,1014.74
2018-07-19T10:39:26.435Z,1014.72
2018-07-19T10:40:26.455Z,1014.72
2018-07-19T10:41:26.471Z,1014.71
2018-07-19T10:42:26.491Z,1014.69
2018-07-19T10:43:26.506Z,1014.71
2018-07-19T10:44:26.525Z,1014.59
2018-07-19T10:45:26.540Z,1014.60
2018-07-19T10:46:26.557Z,1014.62
2018-07-19T10:47:26.573Z,1014.58
2018-07-19T10:48:26.592Z,1014.60
2018-07-19T10:49:26.607Z,1014.66
2018-07-19T10:50:26.619Z,1014.63
2018-07-19T10:51:26.635Z,1014.62
2018-07-19T10:52:26.652Z,1014.64
2018-07-19T10:53:26.668Z,1014.52
2018-07-19T10:54:26.690Z,1014.37
2018-07-19T10:55:26.707Z,1014.41
2018-07-19T10:56:26.723Z,1014.57
2018-07-19T10:57:26.784Z,1014.56
2018-07-19T10:58:26.752Z,1014.54
2018-07-19T10:59:26.766Z,1014.61
2018-07-19T11:00:26.786Z,1014.56
2018-07-19T11:01:26.803Z,1014.53
2018-07-19T11:02:26.814Z,1014.53
2018-07-19T11:03:26.830Z,1014.56
2018-07-19T11:04:26.850Z,1014.53
2018-07-19T11:05:26.863Z,1014.50
2018-07-19T11:06:26.883Z,1014.54
2018-07-19T11:07:26.900Z,1014.54
2018-07-19T11:08:26.914Z,1014.48
2018-07-19T11:09:26.984Z,1014.50
2018-07-19T11:10:26.945Z,1014.50
2018-07-19T11:11:26.959Z,1014.52
2018-07-19T11:12:26.976Z,1014.48
2018-07-19T11:13:26.991Z,1014.49
2018-07-19T11:14:27.016Z,1014.23
2018-07-19T11:15:27.030Z,1014.29
2018-07-19T11:16:27.059Z,1014.15
2018-07-19T11:17:27.056Z,1014.13
2018-07-19T11:18:27.078Z,1014.08
2018-07-19T11:19:27.094Z,1014.09
2018-07-19T11:20:27.110Z,1014.15
2018-07-19T11:21:27.123Z,1014.13
2018-07-19T11:22:27.135Z,1014.01
2018-07-19T11:23:27.149Z,1013.99
2018-07-19T11:24:27.164Z,1014.00
2018-07-19T11:25:27.178Z,1014.04
2018-07-19T11:26:27.198Z,1014.07
2018-07-19T11:27:27.211Z,1014.05
2018-07-19T11:28:27.247Z,1014.02
2018-07-19T11:29:27.238Z,1013.95
2018-07-19T11:30:27.246Z,1013.95
2018-07-19T11:31:27.260Z,1013.90
2018-07-19T11:32:27.278Z,1013.85
2018-07-19T11:33:27.289Z,1013.94
2018-07-19T11:34:27.296Z,1013.86
2018-07-19T11:35:27.309Z,1013.82
2018-07-19T11:36:27.321Z,1013.78
2018-07-19T11:37:27.331Z,1013.74
2018-07-19T11:38:27.349Z,1013.73
2018-07-19T11:39:27.382Z,1013.67
2018-07-19T11:40:27.368Z,1013.65
2018-07-19T11:41:27.384Z,1013.61
2018-07-19T11:42:27.384Z,1013.56
2018-07-19T11:43:27.394Z,1013.56
2018-07-19T11:44:27.405Z,1013.61
2018-07-19T11:45:27.422Z,1013.59
2018-07-19T11:46:27.427Z,1013.56
2018-07-19T11:47:27.437Z,1013.54
2018-07-19T11:48:27.442Z,1013.56
2018-07-19T11:49:27.450Z,1013.55
2018-07-19T11:50:27.467Z,1013.57
2018-07-19T11:51:27.471Z,1013.54
2018-07-19T11:52:27.480Z,1013.54
2018-07-19T11:53:27.487Z,1013.46
2018-07-19T11:54:27.492Z,1013.52
2018-07-19T11:55:27.499Z,1013.48
2018-07-19T11:56:27.508Z,1013.48
2018-07-19T11:57:27.518Z,1013.46
2018-07-19T11:58:27.528Z,1013.43
2018-07-19T11:59:27.535Z,1013.44
2018-07-19T12:00:27.544Z,1013.43
2018-07-19T12:01:27.572Z,1013.41
2018-07-19T12:02:27.557Z,1013.39
2018-07-19T12:03:27.565Z,1013.48
2018-07-19T12:04:27.576Z,1013.40
2018-07-19T12:05:27.581Z,1013.43